createdAt,value
2023-02-01T00:00:34.297Z,5.50
2023-02-01T00:03:25.100Z,4.60
2023-02-01T00:06:02.670Z,5.20
2023-02-01T00:08:33.839Z,3.70
2023-02-01T00:11:06.990Z,4.00
2023-02-01T00:13:39.982Z,7.80
2023-02-01T00:16:13.901Z,13.90
2023-02-01T00:18:45.115Z,5.00
2023-02-01T00:21:17.881Z,7.70
2023-02-01T00:23:49.236Z,7.00
2023-02-01T00:26:22.146Z,7.60
2023-02-01T00:28:53.145Z,5.60
2023-02-01T00:31:24.291Z,11.60
2023-02-01T00:36:25.240Z,6.00
2023-02-01T00:38:56.063Z,10.00
2023-02-01T00:41:27.590Z,6.50
2023-02-01T00:43:58.645Z,6.80
2023-02-01T00:48:59.662Z,6.20
2023-02-01T00:51:32.142Z,8.50
2023-02-01T00:54:04.520Z,3.20
2023-02-01T00:56:35.788Z,3.70
2023-02-01T00:59:06.831Z,7.10
2023-02-01T01:01:37.846Z,7.00
2023-02-01T01:04:09.100Z,7.60
2023-02-01T01:06:40.560Z,5.90
2023-02-01T01:09:11.887Z,5.90
2023-02-01T01:11:42.942Z,4.30
2023-02-01T01:14:14.515Z,3.70
2023-02-01T01:19:15.305Z,5.20
2023-02-01T01:21:46.293Z,5.50
2023-02-01T01:24:17.408Z,7.60
2023-02-01T01:29:18.376Z,4.80
2023-02-01T01:31:49.625Z,6.70
2023-02-01T01:34:20.608Z,7.20
2023-02-01T01:36:52.123Z,5.00
2023-02-01T01:39:23.177Z,7.60
2023-02-01T01:41:54.206Z,7.60
2023-02-01T01:45:01.434Z,3.70
2023-02-01T01:47:37.865Z,5.40
2023-02-01T01:50:15.371Z,12.00
2023-02-01T01:52:49.021Z,5.40
2023-02-01T01:55:22.517Z,8.20
2023-02-01T01:57:57.667Z,9.00
2023-02-01T02:00:29.102Z,8.80
2023-02-01T02:03:05.457Z,13.00
2023-02-01T02:05:37.005Z,8.50
2023-02-01T02:08:08.124Z,5.40
2023-02-01T02:10:57.639Z,10.60
2023-02-01T02:13:29.966Z,8.70
2023-02-01T02:16:15.798Z,13.20
2023-02-01T02:19:08.405Z,5.90
2023-02-01T02:21:54.725Z,10.20
2023-02-01T02:24:57.122Z,11.40
2023-02-01T02:27:36.812Z,7.20
2023-02-01T02:30:46.940Z,11.50
2023-02-01T02:33:42.344Z,5.90
2023-02-01T02:36:22.276Z,9.70
2023-02-01T02:39:02.182Z,10.90
2023-02-01T02:41:59.743Z,7.40
2023-02-01T02:44:55.543Z,14.50
2023-02-01T02:47:34.454Z,6.60
2023-02-01T02:50:31.498Z,11.50
2023-02-01T02:53:26.995Z,6.20
2023-02-01T02:56:17.023Z,6.60
2023-02-01T02:59:08.401Z,5.90
2023-02-01T03:01:59.593Z,8.90
2023-02-01T03:04:30.749Z,5.90
2023-02-01T03:07:15.682Z,5.60
2023-02-01T03:09:49.197Z,5.10
2023-02-01T03:12:39.536Z,4.10
2023-02-01T03:15:15.116Z,5.90
2023-02-01T03:17:47.717Z,10.80
2023-02-01T03:20:22.337Z,7.60
2023-02-01T03:22:55.777Z,4.00
2023-02-01T03:25:31.124Z,5.50
2023-02-01T03:28:06.218Z,6.20
2023-02-01T03:30:43.045Z,10.50
2023-02-01T03:33:23.866Z,5.70
2023-02-01T03:36:03.142Z,10.90
2023-02-01T03:38:40.643Z,7.60
2023-02-01T03:41:19.076Z,5.20
2023-02-01T03:43:57.989Z,8.60
2023-02-01T03:46:35.115Z,5.80
2023-02-01T03:49:11.990Z,9.30
2023-02-01T03:51:44.471Z,11.20
2023-02-01T03:54:17.930Z,6.00
2023-02-01T03:56:52.910Z,5.30
2023-02-01T03:59:25.183Z,6.10
2023-02-01T04:01:56.367Z,8.50
2023-02-01T04:04:27.677Z,8.90
2023-02-01T04:06:58.720Z,5.80
2023-02-01T04:09:29.748Z,6.00
2023-02-01T04:12:00.802Z,7.00
2023-02-01T04:17:01.304Z,7.60
2023-02-01T04:19:34.525Z,12.00
2023-02-01T04:22:05.577Z,13.00
2023-02-01T04:24:37.499Z,31.90
2023-02-01T04:27:08.417Z,27.80
2023-02-01T04:29:39.847Z,30.80
2023-02-01T04:32:11.080Z,8.50
2023-02-01T04:34:42.108Z,4.10
2023-02-01T04:37:13.214Z,4.90
2023-02-01T04:39:44.249Z,12.20
2023-02-01T04:42:16.153Z,6.10
2023-02-01T04:44:47.340Z,7.40
2023-02-01T04:47:18.265Z,19.40
2023-02-01T04:49:49.221Z,11.90
2023-02-01T04:52:20.170Z,6.40
2023-02-01T04:54:51.374Z,5.50
2023-02-01T04:57:22.470Z,5.20
2023-02-01T04:59:53.325Z,7.10
2023-02-01T05:02:24.663Z,11.20
2023-02-01T05:04:57.027Z,14.40
2023-02-01T05:07:28.219Z,10.40
2023-02-01T05:09:59.177Z,8.90
2023-02-01T05:12:47.721Z,8.40
2023-02-01T05:15:18.798Z,9.30
2023-02-01T05:17:50.110Z,16.90
2023-02-01T05:20:22.132Z,34.50
2023-02-01T05:22:53.516Z,10.50
2023-02-01T05:25:24.901Z,7.80
2023-02-01T05:27:56.678Z,7.80
2023-02-01T05:30:27.680Z,8.50
2023-02-01T05:32:58.663Z,14.70
2023-02-01T05:35:29.714Z,9.30
2023-02-01T05:38:00.809Z,10.70
2023-02-01T05:40:31.980Z,11.30
2023-02-01T05:43:02.910Z,10.30
2023-02-01T05:45:34.133Z,7.40
2023-02-01T05:48:05.192Z,16.30
2023-02-01T05:50:36.259Z,11.40
2023-02-01T05:53:07.683Z,9.50
2023-02-01T05:55:39.693Z,7.70
2023-02-01T05:58:10.965Z,8.70
2023-02-01T06:00:42.286Z,7.40
2023-02-01T06:03:13.264Z,11.60
2023-02-01T06:05:45.444Z,9.20
2023-02-01T06:08:18.260Z,19.20
2023-02-01T06:10:49.280Z,11.90
2023-02-01T06:13:21.494Z,14.60
2023-02-01T06:15:53.137Z,11.00
2023-02-01T06:18:24.281Z,20.10
2023-02-01T06:21:01.179Z,34.90
2023-02-01T06:23:33.024Z,10.80
2023-02-01T06:26:05.750Z,15.00
2023-02-01T06:28:37.334Z,24.50
2023-02-01T06:31:09.392Z,32.10
2023-02-01T06:33:40.885Z,13.90
2023-02-01T06:36:14.314Z,62.60
2023-02-01T06:38:45.549Z,14.20
2023-02-01T06:41:17.320Z,25.00
2023-02-01T06:43:48.355Z,11.80
2023-02-01T06:46:19.730Z,13.40
2023-02-01T06:48:52.064Z,17.00
2023-02-01T06:51:26.389Z,19.30
2023-02-01T06:53:57.561Z,13.20
2023-02-01T06:56:28.902Z,11.30
2023-02-01T06:58:59.954Z,11.80
2023-02-01T07:01:31.020Z,59.90
2023-02-01T07:04:02.025Z,17.40
2023-02-01T07:06:33.106Z,27.20
2023-02-01T07:09:04.450Z,14.60
2023-02-01T07:11:35.973Z,17.60
2023-02-01T07:16:36.595Z,8.40
2023-02-01T07:19:08.626Z,5.90
2023-02-01T07:21:39.630Z,6.90
2023-02-01T07:24:10.729Z,2.90
2023-02-01T07:26:41.815Z,4.20
2023-02-01T07:29:12.999Z,8.30
2023-02-01T07:31:44.395Z,5.00
2023-02-01T07:34:15.675Z,6.50
2023-02-01T07:36:46.810Z,6.50
2023-02-01T07:39:17.605Z,6.40
2023-02-01T07:41:49.248Z,5.00
2023-02-01T07:44:23.713Z,8.60
2023-02-01T07:46:55.213Z,5.10
2023-02-01T07:49:26.619Z,7.00
2023-02-01T07:54:27.644Z,5.30
2023-02-01T07:56:58.727Z,6.30
2023-02-01T07:59:30.060Z,11.50
2023-02-01T08:04:31.106Z,11.10
2023-02-01T08:07:02.006Z,10.70
2023-02-01T08:09:33.223Z,6.20
2023-02-01T08:12:07.747Z,3.70
2023-02-01T08:14:38.765Z,4.40
2023-02-01T08:17:09.733Z,7.00
2023-02-01T08:19:40.793Z,3.80
2023-02-01T08:22:11.691Z,5.80
2023-02-01T08:24:42.805Z,5.90
2023-02-01T08:27:13.684Z,5.80
2023-02-01T08:29:44.738Z,10.60
2023-02-01T08:32:16.096Z,5.30
2023-02-01T08:37:16.613Z,6.10
2023-02-01T08:39:48.108Z,5.80
2023-02-01T08:45:06.330Z,7.10
2023-02-01T08:50:08.780Z,9.50
2023-02-01T08:52:39.784Z,7.10
2023-02-01T08:55:12.330Z,6.80
2023-02-01T08:57:43.986Z,15.80
2023-02-01T09:00:18.513Z,7.50
2023-02-01T09:02:51.738Z,8.50
2023-02-01T09:05:24.184Z,5.00
2023-02-01T09:07:55.184Z,10.80
2023-02-01T09:10:35.315Z,8.90
2023-02-01T09:13:06.522Z,7.30
2023-02-01T09:15:37.589Z,5.30
2023-02-01T09:18:08.903Z,7.60
2023-02-01T09:20:40.440Z,6.50
2023-02-01T09:23:11.546Z,2.30
2023-02-01T09:25:42.577Z,4.90
2023-02-01T09:28:13.636Z,5.00
2023-02-01T09:30:44.930Z,3.10
2023-02-01T09:33:16.163Z,6.90
2023-02-01T09:35:47.012Z,6.00
2023-02-01T09:38:17.949Z,6.70
2023-02-01T09:40:50.243Z,6.00
2023-02-01T09:43:32.773Z,7.00
2023-02-01T09:46:18.084Z,5.00
2023-02-01T09:48:51.587Z,9.50
2023-02-01T09:51:26.017Z,7.30
2023-02-01T09:54:05.473Z,12.70
2023-02-01T09:56:43.908Z,30.50
2023-02-01T09:59:28.882Z,19.10
2023-02-01T10:02:00.852Z,14.40
2023-02-01T10:04:34.664Z,5.80
2023-02-01T10:07:15.069Z,5.60
2023-02-01T10:10:00.997Z,6.10
2023-02-01T10:12:51.685Z,10.70
2023-02-01T10:15:56.341Z,5.40
2023-02-01T10:18:48.295Z,4.90
2023-02-01T10:21:29.421Z,4.80
2023-02-01T10:24:18.120Z,4.50
2023-02-01T10:26:58.369Z,4.90
2023-02-01T10:29:37.889Z,4.80
2023-02-01T10:32:19.667Z,3.70
2023-02-01T10:34:55.391Z,9.00
2023-02-01T10:37:32.977Z,7.30
2023-02-01T10:40:14.725Z,6.90
2023-02-01T10:42:47.677Z,4.60
2023-02-01T10:45:22.631Z,6.70
2023-02-01T10:47:56.828Z,6.60
2023-02-01T10:50:39.495Z,5.00
2023-02-01T10:53:17.281Z,9.10
2023-02-01T10:55:53.052Z,5.50
2023-02-01T10:58:29.380Z,7.20
2023-02-01T11:01:04.674Z,5.90
2023-02-01T11:03:39.475Z,6.20
2023-02-01T11:06:24.469Z,6.10
2023-02-01T11:08:58.354Z,5.40
2023-02-01T11:11:30.242Z,3.60
2023-02-01T11:14:03.697Z,10.10
2023-02-01T11:16:39.151Z,6.60
2023-02-01T11:19:16.751Z,6.00
2023-02-01T11:21:51.221Z,4.90
2023-02-01T11:24:29.697Z,19.40
2023-02-01T11:27:05.799Z,8.80
2023-02-01T11:29:42.387Z,10.40
2023-02-01T11:32:16.234Z,12.40
2023-02-01T11:34:50.145Z,7.30
2023-02-01T11:37:23.747Z,5.20
2023-02-01T11:40:00.131Z,8.10
2023-02-01T11:42:33.078Z,9.80
2023-02-01T11:45:23.182Z,3.20
2023-02-01T11:47:58.708Z,7.60
2023-02-01T11:50:40.238Z,5.70
2023-02-01T11:53:27.522Z,4.50
2023-02-01T11:56:12.190Z,3.80
2023-02-01T11:59:11.546Z,6.60
2023-02-01T12:02:05.516Z,5.60
2023-02-01T12:04:56.191Z,5.80
2023-02-01T12:07:37.373Z,2.20
2023-02-01T12:10:27.181Z,2.50
2023-02-01T12:13:08.579Z,7.60
2023-02-01T12:15:56.764Z,1.90
2023-02-01T12:18:54.142Z,5.30
2023-02-01T12:21:36.679Z,2.10
2023-02-01T12:24:27.960Z,2.50
2023-02-01T12:27:10.243Z,2.30
2023-02-01T12:29:56.041Z,1.90
2023-02-01T12:32:42.461Z,2.30
2023-02-01T12:35:40.902Z,2.20
2023-02-01T12:38:33.259Z,2.90
2023-02-01T12:41:20.236Z,1.90
2023-02-01T12:43:57.010Z,3.30
2023-02-01T12:46:34.670Z,1.80
2023-02-01T12:49:13.501Z,5.30
2023-02-01T12:51:49.390Z,2.70
2023-02-01T12:54:26.995Z,2.10
2023-02-01T12:57:04.166Z,3.00
2023-02-01T12:59:40.229Z,5.60
2023-02-01T13:02:18.651Z,3.60
2023-02-01T13:05:00.142Z,3.00
2023-02-01T13:07:36.657Z,1.10
2023-02-01T13:10:18.545Z,3.20
2023-02-01T13:12:55.818Z,5.20
2023-02-01T13:15:31.207Z,1.90
2023-02-01T13:18:07.137Z,4.30
2023-02-01T13:20:44.970Z,1.50
2023-02-01T13:23:29.910Z,4.30
2023-02-01T13:26:00.960Z,4.60
2023-02-01T13:28:41.231Z,8.00
2023-02-01T13:31:40.653Z,6.00
2023-02-01T13:35:01.365Z,10.70
2023-02-01T13:37:46.044Z,10.80
2023-02-01T13:40:43.266Z,5.40
2023-02-01T13:43:19.686Z,10.20
2023-02-01T13:45:54.415Z,11.70
2023-02-01T13:48:30.979Z,5.20
2023-02-01T13:51:03.140Z,24.40
2023-02-01T13:53:37.932Z,20.10
2023-02-01T13:56:13.543Z,11.70
2023-02-01T13:58:46.444Z,4.70
2023-02-01T14:01:46.499Z,20.50
2023-02-01T14:04:52.377Z,8.50
2023-02-01T14:07:25.420Z,15.20
2023-02-01T14:09:56.586Z,13.00
2023-02-01T14:15:25.225Z,4.80
2023-02-01T14:17:56.903Z,5.00
2023-02-01T14:20:52.124Z,6.30
2023-02-01T14:23:26.654Z,5.30
2023-02-01T14:26:26.099Z,4.60
2023-02-01T14:29:07.013Z,7.50
2023-02-01T14:31:45.761Z,8.40
2023-02-01T14:34:21.426Z,10.10
2023-02-01T14:37:00.744Z,11.40
2023-02-01T14:39:37.430Z,13.70
2023-02-01T14:42:22.932Z,12.20
2023-02-01T14:44:58.688Z,7.20
2023-02-01T14:47:38.264Z,24.20
2023-02-01T14:50:24.405Z,8.70
2023-02-01T14:53:20.185Z,10.20
2023-02-01T14:55:54.946Z,8.80
2023-02-01T14:58:37.292Z,8.80
2023-02-01T15:01:17.556Z,6.50
2023-02-01T15:04:03.376Z,9.10
2023-02-01T15:06:39.600Z,8.30
2023-02-01T15:09:17.012Z,13.30
2023-02-01T15:12:07.445Z,9.70
2023-02-01T15:14:41.083Z,12.20
2023-02-01T15:17:24.584Z,55.10
2023-02-01T15:20:00.637Z,52.30
2023-02-01T15:22:37.452Z,37.20
2023-02-01T15:25:20.468Z,15.00
2023-02-01T15:27:51.631Z,98.30
2023-02-01T15:33:05.427Z,21.50
2023-02-01T15:35:44.692Z,47.40
2023-02-01T15:38:36.427Z,62.10
2023-02-01T15:41:11.834Z,45.90
2023-02-01T15:43:45.477Z,19.50
2023-02-01T15:46:21.493Z,31.40
2023-02-01T15:48:55.304Z,40.00
2023-02-01T15:51:28.007Z,35.70
2023-02-01T15:54:02.481Z,57.30
2023-02-01T15:56:38.184Z,62.30
2023-02-01T15:59:18.271Z,70.00
2023-02-01T16:01:49.689Z,44.40
2023-02-01T16:04:23.756Z,57.00
2023-02-01T16:06:56.771Z,49.30
2023-02-01T16:09:39.978Z,29.40
2023-02-01T16:12:31.197Z,44.10
2023-02-01T16:15:02.588Z,52.70
2023-02-01T16:17:34.331Z,28.80
2023-02-01T16:20:06.391Z,38.40
2023-02-01T16:22:37.701Z,52.30
2023-02-01T16:25:10.082Z,84.30
2023-02-01T16:27:41.188Z,101.90
2023-02-01T16:30:13.623Z,69.60
2023-02-01T16:32:44.575Z,17.60
2023-02-01T16:35:23.362Z,26.70
2023-02-01T16:37:54.788Z,28.30
2023-02-01T16:40:25.719Z,47.50
2023-02-01T16:42:57.681Z,17.80
2023-02-01T16:45:28.704Z,17.00
2023-02-01T16:48:00.630Z,11.80
2023-02-01T16:50:34.147Z,22.40
2023-02-01T16:53:05.487Z,17.50
2023-02-01T16:55:36.695Z,22.80
2023-02-01T17:00:38.819Z,17.40
2023-02-01T17:03:11.599Z,16.80
2023-02-01T17:05:42.796Z,19.00
2023-02-01T17:08:20.237Z,14.30
2023-02-01T17:13:20.794Z,24.70
2023-02-01T17:15:56.189Z,38.10
2023-02-01T17:18:31.582Z,24.90
2023-02-01T17:21:03.347Z,42.10
2023-02-01T17:23:35.001Z,34.00
2023-02-01T17:26:06.380Z,19.70
2023-02-01T17:28:37.517Z,24.70
2023-02-01T17:31:09.370Z,49.60
2023-02-01T17:33:40.989Z,21.70
2023-02-01T17:38:48.810Z,10.00
2023-02-01T17:41:25.090Z,35.30
2023-02-01T17:43:56.567Z,19.40
2023-02-01T17:48:58.798Z,4.50
2023-02-01T17:54:00.923Z,21.70
2023-02-01T17:56:32.882Z,16.70
2023-02-01T17:59:03.924Z,12.30
2023-02-01T18:01:35.131Z,9.00
2023-02-01T18:06:38.689Z,11.60
2023-02-01T18:09:09.793Z,6.30
2023-02-01T18:11:41.840Z,10.10
2023-02-01T18:14:14.774Z,11.70
2023-02-01T18:16:45.930Z,9.40
2023-02-01T18:19:16.925Z,15.40
2023-02-01T18:21:48.859Z,18.10
2023-02-01T18:24:20.015Z,19.60
2023-02-01T18:29:21.278Z,14.00
2023-02-01T18:31:52.769Z,8.50
2023-02-01T18:34:25.471Z,13.10
2023-02-01T18:36:56.609Z,7.20
2023-02-01T18:39:27.631Z,11.50
2023-02-01T18:41:59.892Z,26.40
2023-02-01T18:44:30.849Z,27.30
2023-02-01T18:47:01.913Z,20.70
2023-02-01T18:52:02.751Z,21.40
2023-02-01T18:54:34.186Z,7.60
2023-02-01T18:57:06.716Z,9.70
2023-02-01T18:59:37.817Z,6.20
2023-02-01T19:04:38.529Z,7.30
2023-02-01T19:07:09.433Z,4.70
2023-02-01T19:09:40.396Z,5.50
2023-02-01T19:12:11.406Z,5.50
2023-02-01T19:14:43.888Z,5.30
2023-02-01T19:17:15.026Z,5.10
2023-02-01T19:19:45.986Z,3.10
2023-02-01T19:22:17.146Z,3.80
2023-02-01T19:24:48.457Z,3.80
2023-02-01T19:27:20.217Z,9.30
2023-02-01T19:29:52.294Z,9.30
2023-02-01T19:32:23.302Z,10.50
2023-02-01T19:34:54.328Z,12.70
2023-02-01T19:37:25.410Z,4.40
2023-02-01T19:39:56.434Z,4.70
2023-02-01T19:42:28.074Z,4.90
2023-02-01T19:44:59.241Z,2.80
2023-02-01T19:47:30.404Z,4.40
2023-02-01T19:50:01.406Z,2.80
2023-02-01T19:52:32.728Z,5.00
2023-02-01T19:55:04.988Z,7.60
2023-02-01T19:57:37.171Z,7.00
2023-02-01T20:00:14.872Z,4.80
2023-02-01T20:02:50.105Z,3.30
2023-02-01T20:05:23.439Z,3.60
2023-02-01T20:07:54.653Z,16.30
2023-02-01T20:10:25.666Z,30.50
2023-02-01T20:12:56.823Z,6.60
2023-02-01T20:15:28.445Z,8.00
2023-02-01T20:17:59.435Z,11.60
2023-02-01T20:20:30.711Z,7.40
2023-02-01T20:23:02.767Z,6.60
2023-02-01T20:25:35.079Z,4.00
2023-02-01T20:28:06.428Z,3.30
2023-02-01T20:30:37.295Z,6.60
2023-02-01T20:33:08.342Z,5.60
2023-02-01T20:35:39.544Z,4.60
2023-02-01T20:38:10.397Z,3.50
2023-02-01T20:40:41.475Z,6.60
2023-02-01T20:43:12.666Z,8.60
2023-02-01T20:45:44.516Z,5.90
2023-02-01T20:48:16.048Z,7.30
2023-02-01T20:50:47.262Z,28.10
2023-02-01T20:53:26.523Z,9.50
2023-02-01T20:55:59.474Z,7.80
2023-02-01T20:58:31.395Z,7.70
2023-02-01T21:01:03.077Z,16.70
2023-02-01T21:03:35.113Z,7.80
2023-02-01T21:06:08.031Z,7.60
2023-02-01T21:08:39.266Z,6.20
2023-02-01T21:11:13.052Z,5.20
2023-02-01T21:13:50.705Z,7.40
2023-02-01T21:16:23.070Z,5.60
2023-02-01T21:18:54.903Z,9.40
2023-02-01T21:21:25.862Z,15.50
2023-02-01T21:23:58.197Z,33.90
2023-02-01T21:26:40.842Z,14.20
2023-02-01T21:29:14.079Z,17.50
2023-02-01T21:31:45.479Z,17.70
2023-02-01T21:34:16.953Z,9.70
2023-02-01T21:36:48.207Z,5.90
2023-02-01T21:39:19.558Z,8.20
2023-02-01T21:42:08.519Z,8.80
2023-02-01T21:44:39.504Z,5.30
2023-02-01T21:47:11.808Z,5.90
2023-02-01T21:49:43.617Z,5.60
2023-02-01T21:52:16.765Z,6.40
2023-02-01T21:54:48.345Z,4.20
2023-02-01T21:57:19.445Z,5.30
2023-02-01T21:59:50.932Z,4.90
2023-02-01T22:02:22.668Z,6.20
2023-02-01T22:04:53.825Z,5.80
2023-02-01T22:07:24.812Z,11.20
2023-02-01T22:09:55.964Z,6.90
2023-02-01T22:12:27.147Z,1.90
2023-02-01T22:14:58.300Z,2.70
2023-02-01T22:17:31.718Z,3.10
2023-02-01T22:20:02.657Z,3.30
2023-02-01T22:22:34.002Z,4.80
2023-02-01T22:25:05.129Z,4.70
2023-02-01T22:30:25.747Z,3.10
2023-02-01T22:35:26.371Z,8.40
2023-02-01T22:37:57.231Z,4.20
2023-02-01T22:40:28.501Z,5.10
2023-02-01T22:42:59.845Z,2.70
2023-02-01T22:48:00.573Z,2.30
2023-02-01T22:50:32.055Z,3.40
2023-02-01T22:53:03.046Z,2.80
2023-02-01T22:55:36.347Z,2.50
2023-02-01T22:58:08.357Z,3.40
2023-02-01T23:00:39.625Z,4.80
2023-02-01T23:03:10.748Z,4.50
2023-02-01T23:05:41.833Z,6.10
2023-02-01T23:08:12.698Z,4.10
2023-02-01T23:10:43.783Z,5.80
2023-02-01T23:13:15.066Z,3.90
2023-02-01T23:15:45.998Z,7.40
2023-02-01T23:18:16.953Z,5.00
2023-02-01T23:20:48.157Z,6.40
2023-02-01T23:23:19.218Z,2.20
2023-02-01T23:25:53.365Z,3.10
2023-02-01T23:28:24.229Z,4.80
2023-02-01T23:30:55.295Z,9.90
2023-02-01T23:33:27.965Z,7.40
2023-02-01T23:36:00.655Z,7.00
2023-02-01T23:38:32.012Z,7.20
2023-02-01T23:41:04.706Z,6.40
2023-02-01T23:43:53.080Z,6.10
2023-02-01T23:46:24.611Z,7.00
2023-02-01T23:48:55.666Z,5.00
2023-02-01T23:51:27.516Z,5.00
2023-02-01T23:53:59.184Z,4.00
2023-02-01T23:56:34.455Z,1.10
2023-02-01T23:59:07.232Z,2.70
